Time;durP1;ratioP1;P1;durP2;ratioP2;P2;SDS_P1;SDS_P2;PMS_P1;PMS_P2;Temp;Humidity;BMP_temperature;BMP_pressure;BME280_temperature;BME280_humidity;BME280_pressure;Samples;Min_cycle;Max_cycle;Signal;HPM_P1;HPM_P2
2022/07/11 00:02:14;;;;;;;3.42;1.13;;;;;;;;;;4990472;28;99860;-62
2022/07/11 00:04:42;;;;;;;2.22;0.98;;;;;;;;;;4992898;28;100498;-62
2022/07/11 00:07:09;;;;;;;1.83;1.00;;;;;;;;;;4990405;28;99168;-61
2022/07/11 00:09:35;;;;;;;0.88;0.85;;;;;;;;;;4990965;28;98834;-62
2022/07/11 00:12:02;;;;;;;2.42;1.00;;;;;;;;;;4990473;28;99301;-61
2022/07/11 00:14:28;;;;;;;3.28;1.00;;;;;;;;;;4990226;28;99657;-62
2022/07/11 00:16:54;;;;;;;1.77;0.93;;;;;;;;;;4990461;28;98444;-62
2022/07/11 00:19:21;;;;;;;2.13;1.23;;;;;;;;;;4990159;28;99356;-62
2022/07/11 00:21:48;;;;;;;1.52;0.90;;;;;;;;;;4991222;28;99077;-62
2022/07/11 00:24:17;;;;;;;1.98;0.82;;;;;;;;;;4994162;28;98488;-62
2022/07/11 00:26:43;;;;;;;2.38;1.23;;;;;;;;;;4997149;28;98970;-62
2022/07/11 00:29:10;;;;;;;2.17;1.08;;;;;;;;;;4993596;28;99340;-62
2022/07/11 00:31:36;;;;;;;2.17;1.30;;;;;;;;;;4993970;28;100196;-62
2022/07/11 00:34:02;;;;;;;1.33;0.90;;;;;;;;;;4993332;28;99832;-61
2022/07/11 00:36:29;;;;;;;2.17;1.00;;;;;;;;;;4994033;28;98586;-62
2022/07/11 00:38:55;;;;;;;1.55;1.08;;;;;;;;;;4993693;28;99512;-62
2022/07/11 00:41:21;;;;;;;1.67;0.80;;;;;;;;;;4993401;28;99522;-62
2022/07/11 00:43:52;;;;;;;0.95;0.75;;;;;;;;;;4993792;28;99366;-61
2022/07/11 00:46:18;;;;;;;2.13;1.10;;;;;;;;;;4993160;28;99263;-62
2022/07/11 00:48:45;;;;;;;2.53;1.13;;;;;;;;;;4996806;28;100716;-62
2022/07/11 00:51:11;;;;;;;1.60;1.17;;;;;;;;;;4993672;28;99038;-61
2022/07/11 00:53:38;;;;;;;1.90;1.10;;;;;;;;;;4992614;28;100291;-62
2022/07/11 00:56:05;;;;;;;2.22;0.95;;;;;;;;;;4993731;28;98762;-62
2022/07/11 00:58:32;;;;;;;5.07;1.20;;;;;;;;;;4993765;28;99257;-62
2022/07/11 01:00:58;;;;;;;1.70;0.80;;;;;;;;;;4993005;28;99764;-62
2022/07/11 01:03:24;;;;;;;2.15;0.90;;;;;;;;;;4993518;28;98520;-62
2022/07/11 01:05:51;;;;;;;1.90;1.30;;;;;;;;;;4993475;28;99256;-62
2022/07/11 01:08:17;;;;;;;0.98;0.75;;;;;;;;;;4993583;28;99593;-62
2022/07/11 01:10:43;;;;;;;1.05;0.90;;;;;;;;;;4997237;28;98065;-62
2022/07/11 01:13:10;;;;;;;2.55;1.00;;;;;;;;;;4993150;28;99602;-61
2022/07/11 01:15:36;;;;;;;2.35;1.02;;;;;;;;;;4991806;28;98566;-62
2022/07/11 01:18:03;;;;;;;3.20;1.10;;;;;;;;;;4992762;28;100406;-62
2022/07/11 01:20:29;;;;;;;1.70;0.93;;;;;;;;;;4992932;28;99500;-61
2022/07/11 01:23:01;;;;;;;1.85;1.17;;;;;;;;;;4993526;28;98683;-62
2022/07/11 01:25:32;;;;;;;1.67;0.90;;;;;;;;;;4993382;28;99180;-62
2022/07/11 01:28:03;;;;;;;2.38;1.10;;;;;;;;;;4992836;28;99492;-62
2022/07/11 01:30:31;;;;;;;1.52;1.02;;;;;;;;;;4996653;28;98442;-62
2022/07/11 01:32:58;;;;;;;1.83;1.00;;;;;;;;;;4992340;28;99691;-62
2022/07/11 01:35:25;;;;;;;3.47;1.25;;;;;;;;;;4993746;28;97798;-62
2022/07/11 01:37:51;;;;;;;2.03;1.10;;;;;;;;;;4992922;28;98666;-62
2022/07/11 01:40:17;;;;;;;1.92;1.20;;;;;;;;;;4992272;28;99853;-62
2022/07/11 01:42:43;;;;;;;2.17;1.00;;;;;;;;;;4991527;28;99362;-62
2022/07/11 01:45:11;;;;;;;1.05;0.95;;;;;;;;;;4992832;28;100172;-62
2022/07/11 01:47:37;;;;;;;3.58;1.08;;;;;;;;;;4992459;28;99706;-62
2022/07/11 01:50:04;;;;;;;1.60;0.90;;;;;;;;;;4992967;28;98581;-62
2022/07/11 01:52:30;;;;;;;1.10;1.00;;;;;;;;;;4995639;28;99472;-62
2022/07/11 01:54:57;;;;;;;2.15;1.02;;;;;;;;;;4992855;28;98653;-61
2022/07/11 01:57:23;;;;;;;1.17;1.00;;;;;;;;;;4992870;28;99244;-62
2022/07/11 01:59:49;;;;;;;1.73;1.10;;;;;;;;;;4992672;28;98862;-62
2022/07/11 02:02:16;;;;;;;1.85;1.05;;;;;;;;;;4992535;28;98942;-62
2022/07/11 02:04:42;;;;;;;1.13;1.00;;;;;;;;;;4992478;28;99126;-62
2022/07/11 02:07:11;;;;;;;1.80;1.00;;;;;;;;;;4991883;28;100485;-62
2022/07/11 02:09:37;;;;;;;1.48;1.00;;;;;;;;;;4992702;28;98497;-62
2022/07/11 02:12:05;;;;;;;1.77;1.00;;;;;;;;;;4992440;28;99268;-62
2022/07/11 02:14:32;;;;;;;1.42;0.85;;;;;;;;;;4995321;28;99549;-61
2022/07/11 02:16:58;;;;;;;2.67;1.20;;;;;;;;;;4992189;28;99216;-62
2022/07/11 02:19:25;;;;;;;1.58;0.90;;;;;;;;;;4991690;28;100692;-62
2022/07/11 02:21:51;;;;;;;1.30;0.90;;;;;;;;;;4992266;28;98505;-62
2022/07/11 02:24:18;;;;;;;1.38;0.93;;;;;;;;;;4992835;28;100616;-64
2022/07/11 02:26:44;;;;;;;1.95;0.85;;;;;;;;;;4991769;28;98831;-63
2022/07/11 02:29:11;;;;;;;1.92;0.80;;;;;;;;;;4992491;28;98480;-62
2022/07/11 02:31:37;;;;;;;0.70;0.70;;;;;;;;;;4991416;28;99293;-62
2022/07/11 02:34:04;;;;;;;0.85;0.70;;;;;;;;;;4991993;28;99810;-62
2022/07/11 02:36:31;;;;;;;1.70;0.90;;;;;;;;;;4995352;28;98684;-62
2022/07/11 02:38:57;;;;;;;1.15;0.80;;;;;;;;;;4991724;28;102641;-61
2022/07/11 02:41:25;;;;;;;1.23;0.93;;;;;;;;;;4992244;28;98521;-62
2022/07/11 02:43:51;;;;;;;1.60;0.93;;;;;;;;;;4991894;28;99400;-62
2022/07/11 02:46:17;;;;;;;2.17;0.85;;;;;;;;;;4990818;28;100208;-62
2022/07/11 02:48:44;;;;;;;1.90;1.08;;;;;;;;;;4992322;28;97875;-61
2022/07/11 02:51:10;;;;;;;3.20;1.27;;;;;;;;;;4991932;28;98435;-62
2022/07/11 02:53:36;;;;;;;1.08;0.80;;;;;;;;;;4990109;28;99880;-62
2022/07/11 02:56:03;;;;;;;1.30;0.70;;;;;;;;;;4991274;28;99249;-62
2022/07/11 02:58:29;;;;;;;2.13;1.23;;;;;;;;;;4994814;28;99940;-62
2022/07/11 03:00:55;;;;;;;1.00;0.80;;;;;;;;;;4991452;28;98455;-61
2022/07/11 03:03:22;;;;;;;1.52;0.80;;;;;;;;;;4991596;28;99161;-62
2022/07/11 03:05:48;;;;;;;2.28;1.10;;;;;;;;;;4991143;28;99574;-62
2022/07/11 03:08:14;;;;;;;1.52;0.80;;;;;;;;;;4991661;28;98521;-62
2022/07/11 03:10:40;;;;;;;3.33;1.10;;;;;;;;;;4991713;28;100201;-61
2022/07/11 03:13:07;;;;;;;3.08;1.10;;;;;;;;;;4991891;28;98929;-61
2022/07/11 03:15:33;;;;;;;1.80;0.88;;;;;;;;;;4991641;28;98446;-62
2022/07/11 03:17:59;;;;;;;1.95;0.82;;;;;;;;;;4993879;28;99189;-62
2022/07/11 03:20:26;;;;;;;1.27;0.70;;;;;;;;;;4991065;28;99294;-61
2022/07/11 03:22:52;;;;;;;0.70;0.70;;;;;;;;;;4989983;28;101043;-62
2022/07/11 03:25:18;;;;;;;2.15;0.65;;;;;;;;;;4991281;28;99841;-62
2022/07/11 03:27:45;;;;;;;2.08;1.00;;;;;;;;;;4991433;28;98591;-62
2022/07/11 03:30:11;;;;;;;2.00;0.93;;;;;;;;;;4991347;28;99260;-61
2022/07/11 03:32:37;;;;;;;2.28;0.80;;;;;;;;;;4990599;28;99543;-62
2022/07/11 03:37:49;;;;;;;2.08;0.90;;;;;;;;;;4991715;28;99334;-62
2022/07/11 03:40:15;;;;;;;1.33;0.88;;;;;;;;;;4994138;28;100010;-61
2022/07/11 03:42:42;;;;;;;2.15;1.10;;;;;;;;;;4991402;28;99142;-62
2022/07/11 03:45:08;;;;;;;2.30;1.08;;;;;;;;;;4990418;28;101240;-61
2022/07/11 03:47:36;;;;;;;3.15;0.90;;;;;;;;;;4989990;28;98589;-62
2022/07/11 03:50:03;;;;;;;0.80;0.60;;;;;;;;;;4990767;28;99841;-61
2022/07/11 03:52:29;;;;;;;2.13;0.77;;;;;;;;;;4990422;28;99719;-62
2022/07/11 03:54:55;;;;;;;1.88;0.73;;;;;;;;;;4991159;28;98541;-62
2022/07/11 03:57:22;;;;;;;1.00;0.63;;;;;;;;;;4989681;28;99122;-61
2022/07/11 03:59:48;;;;;;;1.33;0.85;;;;;;;;;;4990458;28;99577;-62
2022/07/11 04:02:14;;;;;;;2.67;0.70;;;;;;;;;;4993133;28;97849;-62
2022/07/11 04:04:41;;;;;;;1.77;0.80;;;;;;;;;;4989975;28;99482;-62
2022/07/11 04:07:07;;;;;;;2.30;1.00;;;;;;;;;;4991198;28;98468;-62
2022/07/11 04:09:34;;;;;;;1.13;0.90;;;;;;;;;;4990678;28;100298;-62
2022/07/11 04:12:00;;;;;;;2.05;0.68;;;;;;;;;;4990216;28;99973;-62
2022/07/11 04:14:26;;;;;;;1.95;1.00;;;;;;;;;;4990878;28;98504;-62
2022/07/11 04:16:52;;;;;;;1.35;0.88;;;;;;;;;;4989949;28;99468;-62
2022/07/11 04:19:19;;;;;;;0.70;0.57;;;;;;;;;;4989816;28;99487;-62
2022/07/11 04:21:45;;;;;;;1.90;0.82;;;;;;;;;;4990412;28;98440;-62
2022/07/11 04:24:11;;;;;;;1.60;0.75;;;;;;;;;;4993626;28;99486;-61
2022/07/11 04:26:38;;;;;;;1.77;0.85;;;;;;;;;;4990766;28;97740;-62
2022/07/11 04:29:04;;;;;;;3.60;1.02;;;;;;;;;;4990839;28;99488;-62
2022/07/11 04:31:30;;;;;;;1.08;0.75;;;;;;;;;;4990109;28;103773;-61
2022/07/11 04:33:57;;;;;;;1.38;0.75;;;;;;;;;;4989895;28;99268;-61
2022/07/11 04:36:23;;;;;;;1.55;0.73;;;;;;;;;;4990472;28;100000;-61
2022/07/11 04:38:49;;;;;;;1.48;0.70;;;;;;;;;;4990251;28;100565;-62
2022/07/11 04:41:15;;;;;;;1.98;1.08;;;;;;;;;;4990541;28;98389;-62
2022/07/11 04:43:42;;;;;;;1.90;0.98;;;;;;;;;;4990173;28;98947;-62
2022/07/11 04:46:10;;;;;;;1.17;0.70;;;;;;;;;;4993093;28;99535;-62
2022/07/11 04:48:39;;;;;;;1.45;0.88;;;;;;;;;;4990159;28;99244;-62
2022/07/11 04:51:05;;;;;;;1.55;0.77;;;;;;;;;;4990362;28;98868;-62
2022/07/11 04:53:32;;;;;;;1.33;0.80;;;;;;;;;;4989000;28;98550;-62
2022/07/11 04:55:59;;;;;;;1.35;0.70;;;;;;;;;;4990546;28;100554;-62
2022/07/11 04:58:25;;;;;;;1.92;0.63;;;;;;;;;;4989276;28;100214;-61
2022/07/11 05:00:51;;;;;;;1.25;0.90;;;;;;;;;;4989982;28;98547;-61
2022/07/11 05:03:19;;;;;;;0.52;0.52;;;;;;;;;;4989976;28;99179;-62
2022/07/11 05:05:46;;;;;;;1.80;0.75;;;;;;;;;;4989667;28;99977;-62
2022/07/11 05:08:12;;;;;;;2.58;0.88;;;;;;;;;;4994727;28;98484;-61
2022/07/11 05:10:38;;;;;;;2.00;0.80;;;;;;;;;;4993045;28;100159;-62
2022/07/11 05:13:05;;;;;;;1.50;0.63;;;;;;;;;;4993266;28;98565;-62
2022/07/11 05:15:31;;;;;;;1.15;0.60;;;;;;;;;;4993617;28;99239;-62
2022/07/11 05:17:57;;;;;;;0.57;0.57;;;;;;;;;;4992271;28;99567;-62
2022/07/11 05:20:24;;;;;;;1.00;0.60;;;;;;;;;;4993443;28;98575;-61
2022/07/11 05:22:50;;;;;;;0.55;0.50;;;;;;;;;;4992684;28;99210;-62
2022/07/11 05:25:16;;;;;;;2.10;0.70;;;;;;;;;;4992653;28;99595;-62
2022/07/11 05:27:43;;;;;;;0.80;0.60;;;;;;;;;;4996342;28;98755;-62
2022/07/11 05:30:09;;;;;;;1.33;0.65;;;;;;;;;;4992883;28;99896;-62
2022/07/11 05:32:35;;;;;;;1.13;0.70;;;;;;;;;;4992825;28;98511;-63
2022/07/11 05:35:03;;;;;;;1.13;0.70;;;;;;;;;;4993086;28;99389;-62
2022/07/11 05:37:30;;;;;;;1.60;0.82;;;;;;;;;;4992508;28;99501;-62
2022/07/11 05:39:56;;;;;;;2.00;0.60;;;;;;;;;;4993547;28;97784;-62
2022/07/11 05:42:30;;;;;;;1.48;0.75;;;;;;;;;;4993159;28;99781;-61
2022/07/11 05:44:57;;;;;;;0.63;0.60;;;;;;;;;;4992520;28;99709;-62
2022/07/11 05:47:23;;;;;;;1.23;0.80;;;;;;;;;;4992577;28;99326;-62
2022/07/11 05:49:49;;;;;;;0.60;0.45;;;;;;;;;;4996019;28;101192;-62
2022/07/11 05:52:16;;;;;;;0.75;0.70;;;;;;;;;;4992920;28;98793;-62
2022/07/11 05:54:42;;;;;;;0.98;0.63;;;;;;;;;;4992651;28;99082;-61
2022/07/11 05:57:08;;;;;;;1.50;0.60;;;;;;;;;;4992753;28;101030;-62
2022/07/11 05:59:35;;;;;;;1.02;0.60;;;;;;;;;;4993001;28;98427;-61
2022/07/11 06:02:02;;;;;;;0.70;0.50;;;;;;;;;;4992665;28;99135;-62
2022/07/11 06:04:29;;;;;;;1.20;0.60;;;;;;;;;;4992939;28;99115;-61
2022/07/11 06:06:55;;;;;;;1.15;0.68;;;;;;;;;;4992512;28;98560;-62
2022/07/11 06:09:21;;;;;;;0.70;0.55;;;;;;;;;;4992302;28;99096;-62
2022/07/11 06:11:47;;;;;;;1.15;0.85;;;;;;;;;;4995182;28;101240;-62
2022/07/11 06:14:14;;;;;;;0.47;0.47;;;;;;;;;;4992668;28;99941;-61
2022/07/11 06:16:40;;;;;;;0.77;0.57;;;;;;;;;;4991794;28;99530;-61
2022/07/11 06:19:06;;;;;;;0.77;0.50;;;;;;;;;;4991653;28;98480;-61
2022/07/11 06:21:33;;;;;;;0.93;0.70;;;;;;;;;;4992183;28;99208;-61
2022/07/11 06:23:59;;;;;;;1.02;0.50;;;;;;;;;;4991581;28;99503;-61
2022/07/11 06:26:26;;;;;;;1.00;0.60;;;;;;;;;;4992523;28;98607;-61
2022/07/11 06:28:52;;;;;;;0.45;0.40;;;;;;;;;;4992603;28;99190;-62
2022/07/11 06:31:19;;;;;;;0.60;0.60;;;;;;;;;;4992000;28;99602;-62
2022/07/11 06:33:46;;;;;;;1.10;0.60;;;;;;;;;;4995426;28;98509;-61
2022/07/11 06:36:21;;;;;;;1.38;0.68;;;;;;;;;;4990468;28;101217;-62
2022/07/11 06:38:47;;;;;;;0.90;0.40;;;;;;;;;;4990828;28;98620;-62
2022/07/11 06:41:13;;;;;;;0.90;0.38;;;;;;;;;;4992261;28;99310;-62
2022/07/11 06:43:39;;;;;;;0.60;0.60;;;;;;;;;;4991564;28;99550;-62
2022/07/11 06:46:06;;;;;;;0.95;0.43;;;;;;;;;;4992079;28;98564;-61
2022/07/11 06:48:32;;;;;;;0.90;0.50;;;;;;;;;;4992243;28;100627;-62
2022/07/11 06:50:59;;;;;;;1.05;0.57;;;;;;;;;;4991441;28;99834;-62
2022/07/11 06:53:31;;;;;;;0.68;0.50;;;;;;;;;;4992037;28;97870;-61
2022/07/11 06:55:57;;;;;;;0.57;0.52;;;;;;;;;;4993396;28;99026;-62
2022/07/11 06:58:33;;;;;;;2.05;0.60;;;;;;;;;;4992248;28;98991;-62
2022/07/11 07:01:00;;;;;;;0.50;0.40;;;;;;;;;;4991690;28;100342;-61
2022/07/11 07:03:27;;;;;;;1.55;0.50;;;;;;;;;;4990830;28;99484;-61
2022/07/11 07:05:57;;;;;;;0.50;0.43;;;;;;;;;;4992006;28;98636;-62
2022/07/11 07:08:27;;;;;;;0.60;0.40;;;;;;;;;;4991784;28;98828;-61
2022/07/11 07:10:54;;;;;;;;;;;;;;;;;;4991991;28;100597;-61
2022/07/11 07:13:23;;;;;;;0.40;0.40;;;;;;;;;;4992182;28;118550;-62
2022/07/11 07:15:50;;;;;;;0.47;0.38;;;;;;;;;;4991817;28;99549;-62
2022/07/11 07:18:16;;;;;;;0.68;0.50;;;;;;;;;;4994247;28;98756;-61
2022/07/11 07:20:43;;;;;;;0.30;0.30;;;;;;;;;;4991385;28;98886;-61
2022/07/11 07:23:09;;;;;;;0.50;0.40;;;;;;;;;;4990922;28;100343;-62
2022/07/11 07:25:35;;;;;;;0.60;0.60;;;;;;;;;;4991056;28;99227;-62
2022/07/11 07:28:04;;;;;;;0.50;0.50;;;;;;;;;;4991511;28;100310;-62
2022/07/11 07:30:31;;;;;;;0.40;0.40;;;;;;;;;;4989517;28;99738;-62
2022/07/11 07:32:57;;;;;;;0.40;0.40;;;;;;;;;;4990067;28;98559;-62
2022/07/11 07:35:23;;;;;;;0.93;0.50;;;;;;;;;;4990293;28;99703;-62
2022/07/11 07:37:50;;;;;;;0.52;0.40;;;;;;;;;;4994392;28;100576;-62
2022/07/11 07:40:16;;;;;;;0.38;0.38;;;;;;;;;;4990207;28;100247;-61
2022/07/11 07:42:42;;;;;;;0.80;0.60;;;;;;;;;;4991158;28;98861;-61
2022/07/11 07:45:11;;;;;;;1.00;0.40;;;;;;;;;;4990761;28;98491;-61
2022/07/11 07:47:37;;;;;;;0.30;0.30;;;;;;;;;;4989849;28;99180;-62
2022/07/11 07:50:04;;;;;;;0.35;0.35;;;;;;;;;;4990152;28;100427;-61
2022/07/11 07:52:31;;;;;;;0.40;0.40;;;;;;;;;;4991214;28;98500;-62
2022/07/11 07:54:58;;;;;;;0.40;0.40;;;;;;;;;;4990755;28;99328;-62
2022/07/11 07:57:24;;;;;;;0.40;0.40;;;;;;;;;;4990806;28;99519;-62
2022/07/11 07:59:50;;;;;;;0.45;0.40;;;;;;;;;;4993790;28;98520;-62
2022/07/11 08:02:17;;;;;;;0.30;0.30;;;;;;;;;;4990466;28;99605;-62
2022/07/11 08:04:43;;;;;;;0.73;0.30;;;;;;;;;;4990971;28;98547;-63
2022/07/11 08:07:10;;;;;;;0.40;0.40;;;;;;;;;;4991613;28;97994;-62
2022/07/11 08:09:36;;;;;;;0.35;0.30;;;;;;;;;;4990758;28;99638;-62
2022/07/11 08:12:02;;;;;;;0.43;0.40;;;;;;;;;;4990936;28;98511;-61
2022/07/11 08:14:31;;;;;;;0.65;0.40;;;;;;;;;;4990219;28;103025;-62
2022/07/11 08:16:57;;;;;;;0.40;0.40;;;;;;;;;;4990340;28;99731;-61
2022/07/11 08:19:23;;;;;;;0.50;0.30;;;;;;;;;;4990073;28;98796;-62
2022/07/11 08:21:50;;;;;;;1.63;0.40;;;;;;;;;;4993800;28;100204;-62
2022/07/11 08:24:16;;;;;;;0.30;0.30;;;;;;;;;;4990614;28;98619;-62
2022/07/11 08:26:43;;;;;;;0.43;0.40;;;;;;;;;;4990439;28;99227;-61
2022/07/11 08:29:09;;;;;;;0.30;0.30;;;;;;;;;;4990163;28;100001;-61
2022/07/11 08:31:36;;;;;;;0.45;0.38;;;;;;;;;;4991082;28;97829;-62
2022/07/11 08:34:03;;;;;;;0.20;0.20;;;;;;;;;;4990345;28;98532;-61
2022/07/11 08:36:30;;;;;;;0.43;0.30;;;;;;;;;;4990030;28;99548;-62
2022/07/11 08:38:57;;;;;;;0.85;0.35;;;;;;;;;;4989715;28;99249;-63
2022/07/11 08:41:24;;;;;;;0.40;0.30;;;;;;;;;;4990283;28;100260;-61
2022/07/11 08:43:50;;;;;;;0.40;0.40;;;;;;;;;;4995584;28;99566;-62
2022/07/11 08:46:17;;;;;;;0.32;0.32;;;;;;;;;;4993908;28;100221;-62
2022/07/11 08:48:44;;;;;;;0.68;0.38;;;;;;;;;;4993349;28;99329;-62
2022/07/11 08:51:11;;;;;;;0.30;0.30;;;;;;;;;;4992595;28;98619;-62
2022/07/11 08:53:40;;;;;;;0.52;0.30;;;;;;;;;;4993730;28;99387;-62
2022/07/11 08:56:10;;;;;;;0.85;0.40;;;;;;;;;;4993616;28;99006;-61
2022/07/11 08:58:36;;;;;;;;;;;;;;;;;;4994125;28;98490;-62
2022/07/11 09:01:03;;;;;;;0.52;0.38;;;;;;;;;;4994374;28;129918;-62
2022/07/11 09:03:30;;;;;;;0.47;0.20;;;;;;;;;;4992667;28;100426;-62
2022/07/11 09:05:56;;;;;;;0.60;0.30;;;;;;;;;;4996809;28;98627;-62
2022/07/11 09:08:28;;;;;;;0.30;0.30;;;;;;;;;;4993375;28;98601;-62
2022/07/11 09:10:54;;;;;;;0.30;0.30;;;;;;;;;;4993824;28;98483;-61
2022/07/11 09:13:26;;;;;;;0.30;0.30;;;;;;;;;;4993819;28;99565;-61
2022/07/11 09:15:59;;;;;;;0.25;0.25;;;;;;;;;;4992715;28;99632;-62
2022/07/11 09:18:30;;;;;;;0.30;0.30;;;;;;;;;;4993333;28;98662;-63
2022/07/11 09:26:35;;;;;;;0.30;0.30;;;;;;;;;;4993015;28;98527;-61
2022/07/11 09:29:14;;;;;;;0.28;0.28;;;;;;;;;;4995743;28;99360;-62
2022/07/11 09:31:42;;;;;;;0.22;0.22;;;;;;;;;;4993217;28;98506;-62
2022/07/11 09:34:10;;;;;;;0.68;0.30;;;;;;;;;;4993397;28;99143;-61
2022/07/11 09:36:40;;;;;;;0.20;0.20;;;;;;;;;;4992527;28;99596;-62
2022/07/11 09:39:07;;;;;;;0.30;0.30;;;;;;;;;;4993083;28;98506;-62
2022/07/11 09:41:34;;;;;;;0.63;0.40;;;;;;;;;;4993236;28;100200;-62
2022/07/11 09:44:08;;;;;;;0.30;0.20;;;;;;;;;;4992613;28;100516;-62
2022/07/11 09:46:35;;;;;;;0.73;0.20;;;;;;;;;;4993431;28;97766;-62
2022/07/11 09:49:04;;;;;;;0.40;0.30;;;;;;;;;;4994704;28;98525;-61
2022/07/11 09:51:31;;;;;;;0.38;0.30;;;;;;;;;;4993030;28;98563;-61
2022/07/11 09:53:58;;;;;;;0.30;0.30;;;;;;;;;;4992092;28;99448;-62
2022/07/11 09:56:46;;;;;;;0.50;0.30;;;;;;;;;;4992388;28;99860;-62
2022/07/11 09:59:23;;;;;;;0.50;0.43;;;;;;;;;;4992620;28;98547;-62
2022/07/11 10:01:49;;;;;;;0.30;0.30;;;;;;;;;;4992486;28;99526;-61
2022/07/11 10:04:16;;;;;;;0.38;0.38;;;;;;;;;;4992316;28;99433;-62
2022/07/11 10:06:44;;;;;;;0.20;0.20;;;;;;;;;;4992684;28;98450;-62
2022/07/11 10:09:10;;;;;;;0.20;0.20;;;;;;;;;;4992650;28;99236;-62
2022/07/11 10:11:37;;;;;;;0.93;0.30;;;;;;;;;;4994554;28;98837;-61
2022/07/11 10:14:03;;;;;;;0.55;0.25;;;;;;;;;;4992485;28;98950;-62
2022/07/11 10:16:37;;;;;;;0.20;0.20;;;;;;;;;;4992127;28;100558;-61
2022/07/11 10:19:35;;;;;;;0.20;0.20;;;;;;;;;;4991648;28;100150;-61
2022/07/11 10:22:36;;;;;;;0.35;0.30;;;;;;;;;;4992192;28;99865;-62
2022/07/11 10:25:12;;;;;;;0.15;0.15;;;;;;;;;;4950065;28;99698;-62
2022/07/11 10:27:53;;;;;;;0.40;0.30;;;;;;;;;;4950351;28;98534;-62
2022/07/11 10:30:39;;;;;;;0.20;0.20;;;;;;;;;;4950366;28;99185;-62
2022/07/11 10:33:06;;;;;;;0.40;0.30;;;;;;;;;;4934047;28;100708;-62
2022/07/11 10:35:32;;;;;;;0.17;0.17;;;;;;;;;;4953541;28;98541;-62
2022/07/11 10:38:04;;;;;;;0.25;0.20;;;;;;;;;;4951110;28;99799;-61
2022/07/11 10:40:40;;;;;;;0.57;0.20;;;;;;;;;;4950515;28;98567;-62
2022/07/11 10:43:06;;;;;;;0.30;0.30;;;;;;;;;;4950719;28;100273;-61
2022/07/11 10:45:51;;;;;;;0.22;0.22;;;;;;;;;;4949337;28;101698;-61
2022/07/11 10:48:17;;;;;;;1.08;0.38;;;;;;;;;;4950160;28;98535;-62
2022/07/11 10:50:44;;;;;;;0.20;0.20;;;;;;;;;;4950352;28;100776;-61
2022/07/11 10:53:20;;;;;;;0.20;0.20;;;;;;;;;;4949862;28;99839;-62
2022/07/11 10:55:52;;;;;;;0.40;0.20;;;;;;;;;;4949794;28;98611;-61
2022/07/11 10:58:31;;;;;;;0.22;0.20;;;;;;;;;;4959878;28;100205;-62
2022/07/11 11:01:27;;;;;;;1.60;0.30;;;;;;;;;;4991666;28;98536;-62
2022/07/11 11:04:14;;;;;;;0.22;0.22;;;;;;;;;;4982136;28;99122;-62
2022/07/11 11:06:56;;;;;;;0.20;0.20;;;;;;;;;;4990781;28;100553;-62
2022/07/11 11:09:38;;;;;;;0.20;0.10;;;;;;;;;;4990340;28;98559;-62
2022/07/11 11:12:04;;;;;;;0.20;0.20;;;;;;;;;;4990990;28;99321;-62
2022/07/11 11:14:30;;;;;;;0.30;0.20;;;;;;;;;;4991112;28;99567;-62
2022/07/11 11:17:17;;;;;;;0.20;0.20;;;;;;;;;;4991584;28;98483;-62
2022/07/11 11:19:46;;;;;;;0.10;0.10;;;;;;;;;;4991066;28;100197;-63
2022/07/11 11:22:13;;;;;;;0.37;0.30;;;;;;;;;;4994300;28;99590;-61
2022/07/11 11:24:41;;;;;;;0.85;0.32;;;;;;;;;;4991390;28;99325;-62
2022/07/11 11:27:28;;;;;;;0.20;0.20;;;;;;;;;;4990924;28;99217;-62
2022/07/11 11:29:55;;;;;;;0.20;0.20;;;;;;;;;;4992124;28;97743;-62
2022/07/11 11:32:31;;;;;;;0.20;0.20;;;;;;;;;;4991159;28;98489;-61
2022/07/11 11:34:58;;;;;;;0.20;0.20;;;;;;;;;;4990815;28;99655;-62
2022/07/11 11:37:25;;;;;;;0.28;0.28;;;;;;;;;;4990642;28;99246;-62
2022/07/11 11:39:57;;;;;;;0.20;0.20;;;;;;;;;;4991269;28;100035;-62
2022/07/11 11:42:23;;;;;;;0.17;0.17;;;;;;;;;;4990890;28;100683;-62
2022/07/11 11:44:52;;;;;;;0.68;0.22;;;;;;;;;;4994605;28;98425;-62
2022/07/11 11:47:19;;;;;;;0.30;0.30;;;;;;;;;;4990779;28;100619;-61
2022/07/11 11:49:46;;;;;;;0.13;0.13;;;;;;;;;;4991072;28;98525;-61
2022/07/11 11:52:13;;;;;;;0.20;0.20;;;;;;;;;;4990968;28;100235;-62
2022/07/11 11:54:39;;;;;;;1.98;0.30;;;;;;;;;;4991116;28;98735;-62
2022/07/11 11:57:10;;;;;;;0.20;0.20;;;;;;;;;;4990912;28;98518;-62
2022/07/11 11:59:38;;;;;;;0.40;0.30;;;;;;;;;;4990733;28;99671;-61
2022/07/11 12:02:04;;;;;;;0.22;0.20;;;;;;;;;;4990018;28;100373;-61
2022/07/11 12:04:34;;;;;;;0.20;0.20;;;;;;;;;;4993766;28;98583;-62
2022/07/11 12:07:03;;;;;;;0.35;0.20;;;;;;;;;;4970712;28;99701;-61
2022/07/11 12:15:04;;;;;;;0.20;0.20;;;;;;;;;;4972241;28;99650;-62
2022/07/11 12:17:30;;;;;;;1.08;0.40;;;;;;;;;;4989841;28;98426;-62
2022/07/11 12:19:57;;;;;;;0.28;0.28;;;;;;;;;;4991070;28;100241;-62
2022/07/11 12:22:23;;;;;;;0.80;0.20;;;;;;;;;;4989994;28;99545;-62
2022/07/11 12:24:51;;;;;;;0.10;0.10;;;;;;;;;;4990856;28;98453;-62
2022/07/11 12:27:21;;;;;;;0.25;0.25;;;;;;;;;;4993097;28;100557;-62
2022/07/11 12:29:50;;;;;;;0.32;0.30;;;;;;;;;;4990547;28;98607;-62
2022/07/11 12:32:18;;;;;;;0.32;0.17;;;;;;;;;;4990479;28;99605;-61
2022/07/11 12:34:46;;;;;;;0.13;0.13;;;;;;;;;;4989988;28;99734;-62
2022/07/11 12:37:13;;;;;;;0.10;0.10;;;;;;;;;;4990327;28;98474;-62
2022/07/11 12:39:53;;;;;;;0.10;0.10;;;;;;;;;;4990608;28;99160;-62
2022/07/11 12:42:25;;;;;;;2.72;0.25;;;;;;;;;;4988995;28;99581;-62
2022/07/11 12:44:59;;;;;;;0.20;0.20;;;;;;;;;;4991015;28;98334;-62
2022/07/11 12:47:27;;;;;;;0.70;0.30;;;;;;;;;;4970505;28;98515;-62
2022/07/11 12:49:54;;;;;;;0.20;0.20;;;;;;;;;;4973426;28;99725;-62
2022/07/11 12:52:21;;;;;;;0.35;0.20;;;;;;;;;;4970174;28;99372;-62
2022/07/11 12:54:47;;;;;;;1.33;0.30;;;;;;;;;;4970044;28;99735;-62
2022/07/11 12:57:20;;;;;;;0.25;0.20;;;;;;;;;;4970473;28;98520;-63
2022/07/11 12:59:46;;;;;;;0.20;0.20;;;;;;;;;;4970124;28;99636;-62
2022/07/11 13:02:14;;;;;;;0.50;0.20;;;;;;;;;;4975791;28;100501;-62
2022/07/11 13:04:40;;;;;;;0.20;0.20;;;;;;;;;;4989678;28;98728;-62
2022/07/11 13:10:08;;;;;;;0.85;0.15;;;;;;;;;;4990113;28;98944;-61
2022/07/11 13:12:34;;;;;;;2.10;0.20;;;;;;;;;;4993390;28;98603;-61
2022/07/11 13:15:10;;;;;;;0.20;0.20;;;;;;;;;;4989603;28;99387;-62
2022/07/11 13:17:38;;;;;;;0.20;0.20;;;;;;;;;;4989413;28;99902;-62
2022/07/11 13:20:06;;;;;;;0.47;0.20;;;;;;;;;;4989569;28;99939;-62
2022/07/11 13:22:33;;;;;;;0.22;0.22;;;;;;;;;;4989477;28;99793;-61
2022/07/11 13:24:59;;;;;;;0.20;0.20;;;;;;;;;;4989745;28;98831;-62
2022/07/11 13:27:25;;;;;;;0.20;0.20;;;;;;;;;;4989901;28;99154;-62
2022/07/11 13:29:52;;;;;;;0.17;0.13;;;;;;;;;;4990607;28;100611;-62
2022/07/11 13:32:18;;;;;;;0.38;0.20;;;;;;;;;;4993215;28;98540;-62
2022/07/11 13:34:44;;;;;;;0.17;0.17;;;;;;;;;;4996651;28;99735;-62
2022/07/11 13:37:11;;;;;;;0.28;0.20;;;;;;;;;;4993008;28;98614;-62
2022/07/11 13:39:37;;;;;;;0.20;0.17;;;;;;;;;;4992927;28;99370;-62
2022/07/11 13:42:03;;;;;;;0.40;0.20;;;;;;;;;;4992276;28;101262;-62
2022/07/11 13:44:30;;;;;;;0.30;0.30;;;;;;;;;;4991855;28;98474;-62
2022/07/11 13:46:57;;;;;;;0.20;0.20;;;;;;;;;;4992753;28;99508;-62
2022/07/11 13:49:24;;;;;;;0.10;0.10;;;;;;;;;;4992400;28;99624;-61
2022/07/11 13:51:50;;;;;;;0.20;0.20;;;;;;;;;;4992827;28;98529;-62
2022/07/11 13:54:16;;;;;;;0.28;0.17;;;;;;;;;;4995708;28;99213;-61
2022/07/11 13:56:42;;;;;;;0.20;0.20;;;;;;;;;;4992631;28;98552;-62
2022/07/11 13:59:09;;;;;;;0.20;0.20;;;;;;;;;;4993348;28;99237;-62
2022/07/11 14:01:35;;;;;;;0.30;0.30;;;;;;;;;;4992136;28;99722;-62
2022/07/11 14:04:02;;;;;;;0.52;0.47;;;;;;;;;;4992691;28;98836;-61
2022/07/11 14:06:29;;;;;;;0.22;0.22;;;;;;;;;;4991778;28;100167;-62
2022/07/11 14:09:15;;;;;;;0.32;0.20;;;;;;;;;;4992361;28;99258;-62
2022/07/11 14:11:42;;;;;;;0.28;0.28;;;;;;;;;;4992783;28;98445;-62
2022/07/11 14:14:08;;;;;;;0.10;0.10;;;;;;;;;;4992555;28;99266;-62
2022/07/11 14:16:34;;;;;;;0.38;0.20;;;;;;;;;;4995524;28;100904;-61
2022/07/11 14:19:04;;;;;;;0.85;0.20;;;;;;;;;;4991736;28;100235;-61
2022/07/11 14:21:31;;;;;;;0.20;0.20;;;;;;;;;;4990932;28;98866;-61
2022/07/11 14:23:58;;;;;;;0.30;0.30;;;;;;;;;;4992755;28;97798;-62
2022/07/11 14:26:24;;;;;;;0.30;0.30;;;;;;;;;;4991028;28;98809;-61
2022/07/11 14:28:51;;;;;;;1.02;0.20;;;;;;;;;;4991753;28;99863;-61
2022/07/11 14:31:17;;;;;;;0.13;0.13;;;;;;;;;;4992000;28;99548;-62
2022/07/11 14:33:43;;;;;;;0.13;0.13;;;;;;;;;;4992136;28;101061;-62
2022/07/11 14:36:10;;;;;;;0.60;0.17;;;;;;;;;;4991767;28;99766;-61
2022/07/11 14:38:36;;;;;;;0.32;0.32;;;;;;;;;;4995504;28;98662;-62
2022/07/11 14:41:03;;;;;;;0.20;0.20;;;;;;;;;;4991055;28;100843;-61
2022/07/11 14:43:29;;;;;;;0.50;0.30;;;;;;;;;;4992087;28;98511;-62
2022/07/11 14:45:56;;;;;;;0.20;0.20;;;;;;;;;;4991932;28;99384;-62
2022/07/11 14:48:22;;;;;;;0.28;0.28;;;;;;;;;;4991912;28;98959;-62
2022/07/11 14:50:49;;;;;;;0.65;0.22;;;;;;;;;;4990899;28;98619;-62
2022/07/11 14:53:15;;;;;;;0.10;0.10;;;;;;;;;;4992122;28;100491;-62
2022/07/11 14:55:41;;;;;;;0.63;0.30;;;;;;;;;;4990915;28;100414;-62
2022/07/11 14:58:08;;;;;;;0.57;0.30;;;;;;;;;;4990813;28;98504;-63
2022/07/11 15:00:34;;;;;;;0.30;0.30;;;;;;;;;;4994869;28;100220;-62
2022/07/11 15:05:51;;;;;;;0.10;0.10;;;;;;;;;;4991801;28;99313;-62